sensor_id;sensor_type;location;lat;lon;timestamp;pressure;altitude;pressure_sealevel;temperature;humidity
61568;BME280;47462;59.172;17.196;2023-01-28T00:01:12;101888.19;;;-3.31;83.92
61568;BME280;47462;59.172;17.196;2023-01-28T00:03:38;101777.63;;;-4.03;83.93
61568;BME280;47462;59.172;17.196;2023-01-28T00:06:07;101851.94;;;-3.42;84.12
61568;BME280;47462;59.172;17.196;2023-01-28T00:08:32;101902.69;;;-3.12;83.89
61568;BME280;47462;59.172;17.196;2023-01-28T00:10:59;101876.31;;;-3.30;84.09
61568;BME280;47462;59.172;17.196;2023-01-28T00:13:25;101821.28;;;-3.61;83.62
61568;BME280;47462;59.172;17.196;2023-01-28T00:15:55;101882.13;;;-3.15;83.91
61568;BME280;47462;59.172;17.196;2023-01-28T00:18:21;101832.88;;;-3.50;83.71
61568;BME280;47462;59.172;17.196;2023-01-28T00:23:23;101881.56;;;-3.09;83.94
61568;BME280;47462;59.172;17.196;2023-01-28T00:25:48;101753.19;;;-3.80;83.53
61568;BME280;47462;59.172;17.196;2023-01-28T00:28:13;101836.19;;;-3.33;83.70
61568;BME280;47462;59.172;17.196;2023-01-28T00:30:39;101819.94;;;-3.35;84.30
61568;BME280;47462;59.172;17.196;2023-01-28T00:33:04;101793.09;;;-3.45;84.21
61568;BME280;47462;59.172;17.196;2023-01-28T00:35:30;101861.63;;;-2.98;84.29
61568;BME280;47462;59.172;17.196;2023-01-28T00:37:55;101880.50;;;-2.95;84.30
61568;BME280;47462;59.172;17.196;2023-01-28T00:40:21;101817.41;;;-3.53;83.88
61568;BME280;47462;59.172;17.196;2023-01-28T00:42:46;101845.47;;;-2.97;84.27
61568;BME280;47462;59.172;17.196;2023-01-28T00:45:11;101842.84;;;-2.99;84.14
61568;BME280;47462;59.172;17.196;2023-01-28T00:47:37;101785.13;;;-3.33;84.47
61568;BME280;47462;59.172;17.196;2023-01-28T00:50:03;101665.13;;;-3.91;84.19
61568;BME280;47462;59.172;17.196;2023-01-28T00:52:28;101779.66;;;-3.23;84.20
61568;BME280;47462;59.172;17.196;2023-01-28T00:54:54;101729.09;;;-3.49;83.92
61568;BME280;47462;59.172;17.196;2023-01-28T00:57:21;101750.00;;;-3.38;84.21
61568;BME280;47462;59.172;17.196;2023-01-28T00:59:46;101809.56;;;-3.00;84.29
61568;BME280;47462;59.172;17.196;2023-01-28T01:02:11;101764.06;;;-3.29;83.90
61568;BME280;47462;59.172;17.196;2023-01-28T01:04:38;101794.16;;;-3.02;84.06
61568;BME280;47462;59.172;17.196;2023-01-28T01:07:03;101792.09;;;-3.11;84.15
61568;BME280;47462;59.172;17.196;2023-01-28T01:09:28;101785.59;;;-3.04;84.32
61568;BME280;47462;59.172;17.196;2023-01-28T01:11:54;101706.25;;;-3.46;83.75
61568;BME280;47462;59.172;17.196;2023-01-28T01:14:19;101751.78;;;-3.18;84.41
61568;BME280;47462;59.172;17.196;2023-01-28T01:16:45;101724.53;;;-3.56;83.90
61568;BME280;47462;59.172;17.196;2023-01-28T01:19:10;101739.75;;;-3.20;84.16
61568;BME280;47462;59.172;17.196;2023-01-28T01:21:36;101773.34;;;-2.92;84.44
61568;BME280;47462;59.172;17.196;2023-01-28T01:24:01;101737.25;;;-2.99;83.92
61568;BME280;47462;59.172;17.196;2023-01-28T01:26:27;101759.91;;;-2.88;84.29
61568;BME280;47462;59.172;17.196;2023-01-28T01:28:52;101753.91;;;-2.88;83.93
61568;BME280;47462;59.172;17.196;2023-01-28T01:31:20;101734.69;;;-2.99;84.19
61568;BME280;47462;59.172;17.196;2023-01-28T01:33:47;101755.78;;;-2.84;83.81
61568;BME280;47462;59.172;17.196;2023-01-28T01:36:14;101764.38;;;-2.82;84.38
61568;BME280;47462;59.172;17.196;2023-01-28T01:38:41;101694.53;;;-3.23;84.06
61568;BME280;47462;59.172;17.196;2023-01-28T01:41:07;101747.47;;;-2.80;83.79
61568;BME280;47462;59.172;17.196;2023-01-28T01:43:49;101743.63;;;-2.90;83.91
61568;BME280;47462;59.172;17.196;2023-01-28T01:46:29;101731.88;;;-2.86;83.87
61568;BME280;47462;59.172;17.196;2023-01-28T01:49:05;101730.13;;;-2.87;83.92
61568;BME280;47462;59.172;17.196;2023-01-28T01:51:33;101730.25;;;-2.84;84.16
61568;BME280;47462;59.172;17.196;2023-01-28T01:54:00;101675.50;;;-3.10;84.03
61568;BME280;47462;59.172;17.196;2023-01-28T01:56:30;101632.84;;;-3.32;83.96
61568;BME280;47462;59.172;17.196;2023-01-28T01:58:57;101679.56;;;-2.94;84.17
61568;BME280;47462;59.172;17.196;2023-01-28T02:01:27;101588.28;;;-3.41;83.84
61568;BME280;47462;59.172;17.196;2023-01-28T02:04:09;101719.81;;;-2.69;84.41
61568;BME280;47462;59.172;17.196;2023-01-28T02:06:37;101697.81;;;-2.65;84.03
61568;BME280;47462;59.172;17.196;2023-01-28T02:09:22;101574.72;;;-3.39;83.78
61568;BME280;47462;59.172;17.196;2023-01-28T02:11:48;101518.28;;;-3.67;83.92
61568;BME280;47462;59.172;17.196;2023-01-28T02:14:14;101490.63;;;-3.77;84.02
61568;BME280;47462;59.172;17.196;2023-01-28T02:16:40;101605.25;;;-3.00;84.49
61568;BME280;47462;59.172;17.196;2023-01-28T02:19:06;101676.81;;;-2.58;84.04
61568;BME280;47462;59.172;17.196;2023-01-28T02:32:19;101640.91;;;-2.61;84.32
61568;BME280;47462;59.172;17.196;2023-01-28T02:34:50;101570.63;;;-2.94;84.21
61568;BME280;47462;59.172;17.196;2023-01-28T02:37:21;101637.81;;;-2.54;83.97
61568;BME280;47462;59.172;17.196;2023-01-28T02:39:53;101635.31;;;-2.53;83.93
61568;BME280;47462;59.172;17.196;2023-01-28T02:42:27;101623.50;;;-2.49;84.10
61568;BME280;47462;59.172;17.196;2023-01-28T02:44:54;101622.66;;;-2.49;84.20
61568;BME280;47462;59.172;17.196;2023-01-28T02:47:19;101570.72;;;-2.70;84.16
61568;BME280;47462;59.172;17.196;2023-01-28T02:50:10;101581.06;;;-2.66;84.26
61568;BME280;47462;59.172;17.196;2023-01-28T02:52:55;101614.44;;;-2.41;84.06
61568;BME280;47462;59.172;17.196;2023-01-28T02:56:04;101509.47;;;-2.91;83.74
61568;BME280;47462;59.172;17.196;2023-01-28T02:58:41;101577.16;;;-2.36;83.87
61568;BME280;47462;59.172;17.196;2023-01-28T03:01:12;101587.44;;;-2.34;84.10
61568;BME280;47462;59.172;17.196;2023-01-28T03:04:52;101584.22;;;-2.28;84.00
61568;BME280;47462;59.172;17.196;2023-01-28T03:06:55;101534.91;;;-2.48;84.29
61568;BME280;47462;59.172;17.196;2023-01-28T03:09:23;101534.97;;;-2.47;84.15
61568;BME280;47462;59.172;17.196;2023-01-28T03:12:04;101519.63;;;-2.47;84.13
61568;BME280;47462;59.172;17.196;2023-01-28T03:14:56;101572.03;;;-2.13;84.52
61568;BME280;47462;59.172;17.196;2023-01-28T03:17:51;101426.09;;;-2.89;84.11
61568;BME280;47462;59.172;17.196;2023-01-28T03:20:45;101554.00;;;-2.16;84.22
61568;BME280;47462;59.172;17.196;2023-01-28T03:24:08;101575.19;;;-1.98;84.29
61568;BME280;47462;59.172;17.196;2023-01-28T03:27:09;101563.56;;;-1.88;84.11
61568;BME280;47462;59.172;17.196;2023-01-28T03:29:58;101553.66;;;-1.78;84.47
61568;BME280;47462;59.172;17.196;2023-01-28T03:32:44;101505.06;;;-2.03;84.30
61568;BME280;47462;59.172;17.196;2023-01-28T03:35:31;101543.81;;;-1.68;84.17
61568;BME280;47462;59.172;17.196;2023-01-28T03:38:18;101472.78;;;-1.99;83.92
61568;BME280;47462;59.172;17.196;2023-01-28T03:40:58;101521.78;;;-1.63;84.18
61568;BME280;47462;59.172;17.196;2023-01-28T03:43:24;101460.16;;;-1.94;84.33
61568;BME280;47462;59.172;17.196;2023-01-28T03:45:50;101500.19;;;-1.71;84.20
61568;BME280;47462;59.172;17.196;2023-01-28T03:48:20;101516.88;;;-1.56;84.36
61568;BME280;47462;59.172;17.196;2023-01-28T03:50:46;101507.59;;;-1.54;84.51
61568;BME280;47462;59.172;17.196;2023-01-28T03:53:13;101507.75;;;-1.50;84.75
61568;BME280;47462;59.172;17.196;2023-01-28T03:55:40;101472.25;;;-1.65;84.53
61568;BME280;47462;59.172;17.196;2023-01-28T03:58:05;101440.28;;;-1.77;84.45
61568;BME280;47462;59.172;17.196;2023-01-28T04:00:31;101503.88;;;-1.37;84.18
61568;BME280;47462;59.172;17.196;2023-01-28T04:03:06;101502.47;;;-1.29;84.14
61568;BME280;47462;59.172;17.196;2023-01-28T04:05:41;101415.19;;;-1.62;84.29
61568;BME280;47462;59.172;17.196;2023-01-28T04:08:07;101324.84;;;-2.12;84.30
61568;BME280;47462;59.172;17.196;2023-01-28T04:10:32;101468.38;;;-1.26;84.25
61568;BME280;47462;59.172;17.196;2023-01-28T04:12:57;101468.44;;;-1.24;84.19
61568;BME280;47462;59.172;17.196;2023-01-28T04:15:23;101337.19;;;-1.99;84.21
61568;BME280;47462;59.172;17.196;2023-01-28T04:17:48;101412.94;;;-1.53;84.31
61568;BME280;47462;59.172;17.196;2023-01-28T04:20:14;101453.06;;;-1.24;83.82
61568;BME280;47462;59.172;17.196;2023-01-28T04:22:40;101465.63;;;-1.05;83.61
61568;BME280;47462;59.172;17.196;2023-01-28T04:25:06;101442.75;;;-0.99;83.47
61568;BME280;47462;59.172;17.196;2023-01-28T04:27:31;101447.84;;;-1.00;83.45
61568;BME280;47462;59.172;17.196;2023-01-28T04:29:57;101398.56;;;-1.20;83.64
61568;BME280;47462;59.172;17.196;2023-01-28T04:32:22;101405.72;;;-1.10;83.44
61568;BME280;47462;59.172;17.196;2023-01-28T04:34:48;101396.47;;;-1.05;83.64
61568;BME280;47462;59.172;17.196;2023-01-28T04:37:13;101357.31;;;-1.30;83.62
61568;BME280;47462;59.172;17.196;2023-01-28T04:39:39;101388.00;;;-1.02;83.40
61568;BME280;47462;59.172;17.196;2023-01-28T05:08:50;101374.69;;;-0.60;82.66
61568;BME280;47462;59.172;17.196;2023-01-28T05:11:15;101373.13;;;-0.55;82.42
61568;BME280;47462;59.172;17.196;2023-01-28T05:13:40;101368.25;;;-0.46;82.20
61568;BME280;47462;59.172;17.196;2023-01-28T05:16:06;101353.72;;;-0.45;82.35
61568;BME280;47462;59.172;17.196;2023-01-28T05:18:32;101350.44;;;-0.41;82.05
61568;BME280;47462;59.172;17.196;2023-01-28T05:20:57;101349.56;;;-0.40;82.53
61568;BME280;47462;59.172;17.196;2023-01-28T05:23:23;101251.69;;;-0.91;82.11
61568;BME280;47462;59.172;17.196;2023-01-28T05:25:48;101345.41;;;-0.37;81.78
61568;BME280;47462;59.172;17.196;2023-01-28T05:28:15;101340.44;;;-0.30;81.67
61568;BME280;47462;59.172;17.196;2023-01-28T05:30:40;101325.59;;;-0.42;82.00
61568;BME280;47462;59.172;17.196;2023-01-28T05:33:06;101299.63;;;-0.55;81.83
61568;BME280;47462;59.172;17.196;2023-01-28T05:35:31;101329.16;;;-0.37;81.81
61568;BME280;47462;59.172;17.196;2023-01-28T05:37:57;101324.06;;;-0.36;81.63
61568;BME280;47462;59.172;17.196;2023-01-28T05:40:22;101242.59;;;-0.79;81.55
61568;BME280;47462;59.172;17.196;2023-01-28T05:42:48;101325.19;;;-0.26;81.70
61568;BME280;47462;59.172;17.196;2023-01-28T05:45:13;101310.44;;;-0.33;81.76
61568;BME280;47462;59.172;17.196;2023-01-28T05:47:39;101300.03;;;-0.39;81.58
61568;BME280;47462;59.172;17.196;2023-01-28T05:50:07;101311.63;;;-0.20;81.45
61568;BME280;47462;59.172;17.196;2023-01-28T05:52:32;101182.34;;;-0.97;81.77
61568;BME280;47462;59.172;17.196;2023-01-28T05:54:58;101269.25;;;-0.39;81.75
61568;BME280;47462;59.172;17.196;2023-01-28T05:57:24;101312.69;;;-0.12;81.60
61568;BME280;47462;59.172;17.196;2023-01-28T05:59:49;101296.25;;;-0.19;81.32
61568;BME280;47462;59.172;17.196;2023-01-28T06:02:15;101292.81;;;-0.21;81.39
61568;BME280;47462;59.172;17.196;2023-01-28T06:04:40;101305.84;;;-0.11;81.56
61568;BME280;47462;59.172;17.196;2023-01-28T06:07:05;101312.75;;;-0.10;81.68
61568;BME280;47462;59.172;17.196;2023-01-28T06:09:31;101328.22;;;-0.07;81.41
61568;BME280;47462;59.172;17.196;2023-01-28T06:11:56;101281.28;;;-0.38;81.48
61568;BME280;47462;59.172;17.196;2023-01-28T06:14:22;101281.13;;;-0.44;81.54
61568;BME280;47462;59.172;17.196;2023-01-28T06:16:47;101302.63;;;-0.38;81.56
61568;BME280;47462;59.172;17.196;2023-01-28T06:19:12;101324.63;;;-0.12;81.33
61568;BME280;47462;59.172;17.196;2023-01-28T06:21:38;101281.28;;;-0.38;81.46
61568;BME280;47462;59.172;17.196;2023-01-28T06:24:03;101334.19;;;-0.07;81.24
61568;BME280;47462;59.172;17.196;2023-01-28T06:26:29;101293.66;;;-0.20;81.22
61568;BME280;47462;59.172;17.196;2023-01-28T06:28:54;101218.19;;;-0.65;81.12
61568;BME280;47462;59.172;17.196;2023-01-28T06:31:20;101270.50;;;-0.23;81.27
61568;BME280;47462;59.172;17.196;2023-01-28T06:33:45;101276.53;;;-0.23;81.05
61568;BME280;47462;59.172;17.196;2023-01-28T06:36:11;101277.44;;;-0.19;81.20
61568;BME280;47462;59.172;17.196;2023-01-28T06:38:36;101307.16;;;0.06;81.51
61568;BME280;47462;59.172;17.196;2023-01-28T06:41:02;101288.16;;;-0.01;81.53
61568;BME280;47462;59.172;17.196;2023-01-28T06:43:27;101289.88;;;-0.01;81.50
61568;BME280;47462;59.172;17.196;2023-01-28T06:45:55;101247.38;;;-0.25;81.76
61568;BME280;47462;59.172;17.196;2023-01-28T06:48:20;101276.25;;;0.02;81.54
61568;BME280;47462;59.172;17.196;2023-01-28T06:50:46;101298.00;;;0.17;81.45
61568;BME280;47462;59.172;17.196;2023-01-28T06:53:12;101276.13;;;-0.03;81.62
61568;BME280;47462;59.172;17.196;2023-01-28T06:55:38;101273.41;;;-0.09;81.50
61568;BME280;47462;59.172;17.196;2023-01-28T06:58:03;101277.84;;;-0.02;81.32
61568;BME280;47462;59.172;17.196;2023-01-28T07:00:28;101234.88;;;-0.11;81.03
61568;BME280;47462;59.172;17.196;2023-01-28T07:02:55;101278.22;;;0.13;81.44
61568;BME280;47462;59.172;17.196;2023-01-28T07:05:22;101285.06;;;0.13;81.48
61568;BME280;47462;59.172;17.196;2023-01-28T07:07:48;101258.38;;;0.05;81.29
61568;BME280;47462;59.172;17.196;2023-01-28T07:10:13;101261.94;;;0.11;81.02
61568;BME280;47462;59.172;17.196;2023-01-28T07:12:39;101201.09;;;-0.29;80.73
61568;BME280;47462;59.172;17.196;2023-01-28T07:15:05;101298.22;;;0.27;81.18
61568;BME280;47462;59.172;17.196;2023-01-28T07:17:30;101147.44;;;-0.58;81.28
61568;BME280;47462;59.172;17.196;2023-01-28T07:19:56;101234.25;;;-0.02;81.31
61568;BME280;47462;59.172;17.196;2023-01-28T07:22:21;101282.81;;;0.27;81.56
61568;BME280;47462;59.172;17.196;2023-01-28T07:24:48;101300.84;;;0.30;81.46
61568;BME280;47462;59.172;17.196;2023-01-28T07:27:13;101298.34;;;0.33;81.65
61568;BME280;47462;59.172;17.196;2023-01-28T07:29:39;101300.09;;;0.34;81.40
61568;BME280;47462;59.172;17.196;2023-01-28T07:32:04;101272.44;;;0.22;81.54
61568;BME280;47462;59.172;17.196;2023-01-28T07:34:32;101256.06;;;0.17;81.67
61568;BME280;47462;59.172;17.196;2023-01-28T07:36:57;101300.25;;;0.40;81.73
61568;BME280;47462;59.172;17.196;2023-01-28T07:39:23;101292.47;;;0.37;81.65
61568;BME280;47462;59.172;17.196;2023-01-28T07:41:48;101248.25;;;0.11;81.64
61568;BME280;47462;59.172;17.196;2023-01-28T07:44:13;101292.63;;;0.45;81.88
61568;BME280;47462;59.172;17.196;2023-01-28T07:46:39;101251.94;;;0.24;81.62
61568;BME280;47462;59.172;17.196;2023-01-28T07:49:04;101244.28;;;0.25;81.68
61568;BME280;47462;59.172;17.196;2023-01-28T07:51:30;101196.50;;;-0.06;81.79
61568;BME280;47462;59.172;17.196;2023-01-28T07:53:56;101273.66;;;0.40;82.03
61568;BME280;47462;59.172;17.196;2023-01-28T07:56:21;101268.53;;;0.40;82.29
61568;BME280;47462;59.172;17.196;2023-01-28T07:58:50;101244.47;;;0.34;82.27
61568;BME280;47462;59.172;17.196;2023-01-28T08:01:15;101267.78;;;0.44;82.52
61568;BME280;47462;59.172;17.196;2023-01-28T08:03:42;101236.84;;;0.38;82.62
61568;BME280;47462;59.172;17.196;2023-01-28T08:06:07;101190.31;;;0.24;82.24
61568;BME280;47462;59.172;17.196;2023-01-28T08:08:33;101230.19;;;0.47;82.33
61568;BME280;47462;59.172;17.196;2023-01-28T08:10:58;101142.44;;;-0.14;82.65
61568;BME280;47462;59.172;17.196;2023-01-28T08:13:30;101253.53;;;0.58;82.82
61568;BME280;47462;59.172;17.196;2023-01-28T08:15:55;101249.97;;;0.51;82.46
61568;BME280;47462;59.172;17.196;2023-01-28T08:18:21;101178.88;;;0.08;82.52
61568;BME280;47462;59.172;17.196;2023-01-28T08:20:46;101243.16;;;0.53;82.68
61568;BME280;47462;59.172;17.196;2023-01-28T08:23:13;101247.78;;;0.70;82.86
61568;BME280;47462;59.172;17.196;2023-01-28T08:25:39;101239.06;;;0.62;82.86
61568;BME280;47462;59.172;17.196;2023-01-28T08:28:05;101246.19;;;0.75;82.99
61568;BME280;47462;59.172;17.196;2023-01-28T08:30:31;101248.47;;;0.63;83.22
61568;BME280;47462;59.172;17.196;2023-01-28T08:32:58;101193.31;;;0.44;83.04
61568;BME280;47462;59.172;17.196;2023-01-28T08:35:25;101228.97;;;0.71;83.24
61568;BME280;47462;59.172;17.196;2023-01-28T08:37:51;101204.72;;;0.58;83.34
61568;BME280;47462;59.172;17.196;2023-01-28T08:40:17;101213.56;;;0.71;83.46
61568;BME280;47462;59.172;17.196;2023-01-28T08:42:49;101156.31;;;0.34;83.59
61568;BME280;47462;59.172;17.196;2023-01-28T08:45:16;101185.06;;;0.59;83.56
61568;BME280;47462;59.172;17.196;2023-01-28T08:47:53;101206.16;;;0.86;83.81
61568;BME280;47462;59.172;17.196;2023-01-28T08:50:19;101194.94;;;0.81;83.91
61568;BME280;47462;59.172;17.196;2023-01-28T08:52:45;101173.94;;;0.60;83.47
61568;BME280;47462;59.172;17.196;2023-01-28T08:55:12;101209.38;;;0.76;83.49
61568;BME280;47462;59.172;17.196;2023-01-28T08:57:37;101221.69;;;0.93;83.36
61568;BME280;47462;59.172;17.196;2023-01-28T09:00:04;101107.47;;;0.31;83.60
61568;BME280;47462;59.172;17.196;2023-01-28T09:02:30;101207.50;;;1.13;83.41
61568;BME280;47462;59.172;17.196;2023-01-28T09:04:56;101084.69;;;0.48;83.21
61568;BME280;47462;59.172;17.196;2023-01-28T09:07:21;101137.56;;;0.84;82.85
61568;BME280;47462;59.172;17.196;2023-01-28T09:09:47;101197.28;;;1.18;82.91
61568;BME280;47462;59.172;17.196;2023-01-28T09:12:12;101200.75;;;1.18;82.91
61568;BME280;47462;59.172;17.196;2023-01-28T09:14:37;101182.75;;;1.18;83.17
61568;BME280;47462;59.172;17.196;2023-01-28T09:17:03;101154.97;;;0.99;83.22
61568;BME280;47462;59.172;17.196;2023-01-28T09:19:29;101176.00;;;1.25;83.25
61568;BME280;47462;59.172;17.196;2023-01-28T09:21:54;101103.53;;;0.96;82.89
61568;BME280;47462;59.172;17.196;2023-01-28T09:24:20;101157.19;;;1.28;82.72
61568;BME280;47462;59.172;17.196;2023-01-28T09:26:48;101190.94;;;1.46;82.92
61568;BME280;47462;59.172;17.196;2023-01-28T09:29:13;101119.25;;;1.14;82.48
61568;BME280;47462;59.172;17.196;2023-01-28T09:31:39;101190.16;;;1.52;82.64
61568;BME280;47462;59.172;17.196;2023-01-28T09:34:05;101153.88;;;1.33;82.69
61568;BME280;47462;59.172;17.196;2023-01-28T09:36:30;101061.34;;;0.83;82.45
61568;BME280;47462;59.172;17.196;2023-01-28T09:38:57;101161.00;;;1.53;82.60
61568;BME280;47462;59.172;17.196;2023-01-28T09:41:26;101182.69;;;1.66;82.59
61568;BME280;47462;59.172;17.196;2023-01-28T09:46:34;101165.59;;;1.71;82.09
61568;BME280;47462;59.172;17.196;2023-01-28T09:49:04;101092.06;;;1.30;82.37
61568;BME280;47462;59.172;17.196;2023-01-28T09:51:40;101143.97;;;1.58;82.09
61568;BME280;47462;59.172;17.196;2023-01-28T09:54:34;101169.97;;;1.76;82.47
61568;BME280;47462;59.172;17.196;2023-01-28T09:57:18;101119.91;;;1.56;82.25
61568;BME280;47462;59.172;17.196;2023-01-28T09:59:44;101094.88;;;1.44;81.90
61568;BME280;47462;59.172;17.196;2023-01-28T10:05:02;101089.03;;;1.56;82.17
61568;BME280;47462;59.172;17.196;2023-01-28T10:10:16;101148.91;;;2.04;81.89
61568;BME280;47462;59.172;17.196;2023-01-28T10:13:11;101149.88;;;2.12;81.95
61568;BME280;47462;59.172;17.196;2023-01-28T10:18:10;101143.22;;;2.31;81.90
61568;BME280;47462;59.172;17.196;2023-01-28T10:26:34;100974.16;;;1.56;81.38
61568;BME280;47462;59.172;17.196;2023-01-28T10:29:19;101118.31;;;2.28;81.44
61568;BME280;47462;59.172;17.196;2023-01-28T10:31:59;101121.91;;;2.43;81.23
61568;BME280;47462;59.172;17.196;2023-01-28T10:34:27;101113.44;;;2.53;81.57
61568;BME280;47462;59.172;17.196;2023-01-28T10:36:52;101076.34;;;2.37;81.29
61568;BME280;47462;59.172;17.196;2023-01-28T10:39:20;101098.97;;;2.67;81.12
61568;BME280;47462;59.172;17.196;2023-01-28T10:41:46;101102.56;;;2.79;80.66
61568;BME280;47462;59.172;17.196;2023-01-28T10:44:15;101067.13;;;2.59;80.65
61568;BME280;47462;59.172;17.196;2023-01-28T10:46:44;101037.66;;;2.32;80.57
61568;BME280;47462;59.172;17.196;2023-01-28T10:49:14;101098.22;;;2.75;80.74
61568;BME280;47462;59.172;17.196;2023-01-28T10:51:41;101084.47;;;2.74;80.95
61568;BME280;47462;59.172;17.196;2023-01-28T10:54:25;100923.75;;;1.72;80.59
61568;BME280;47462;59.172;17.196;2023-01-28T10:56:57;101079.28;;;2.73;80.56
61568;BME280;47462;59.172;17.196;2023-01-28T10:59:29;101032.56;;;2.39;80.88
61568;BME280;47462;59.172;17.196;2023-01-28T11:02:03;101099.03;;;2.74;80.50
61568;BME280;47462;59.172;17.196;2023-01-28T11:04:34;101042.22;;;2.60;80.72
61568;BME280;47462;59.172;17.196;2023-01-28T11:07:15;101050.06;;;2.74;80.32
61568;BME280;47462;59.172;17.196;2023-01-28T11:09:45;101070.06;;;2.99;80.31
61568;BME280;47462;59.172;17.196;2023-01-28T11:12:24;101077.06;;;3.14;79.83
61568;BME280;47462;59.172;17.196;2023-01-28T11:14:58;101078.97;;;3.38;79.58
61568;BME280;47462;59.172;17.196;2023-01-28T11:17:26;101070.44;;;3.50;78.96
61568;BME280;47462;59.172;17.196;2023-01-28T11:19:55;101010.13;;;3.28;78.30
61568;BME280;47462;59.172;17.196;2023-01-28T11:22:42;101046.38;;;3.53;78.14
61568;BME280;47462;59.172;17.196;2023-01-28T11:25:18;101053.28;;;3.54;78.36
61568;BME280;47462;59.172;17.196;2023-01-28T11:27:50;101053.28;;;3.54;78.18
61568;BME280;47462;59.172;17.196;2023-01-28T11:30:26;101061.88;;;3.54;78.65
61568;BME280;47462;59.172;17.196;2023-01-28T11:33:23;101074.75;;;3.53;78.23
61568;BME280;47462;59.172;17.196;2023-01-28T11:36:24;101062.66;;;3.46;78.40
61568;BME280;47462;59.172;17.196;2023-01-28T11:39:22;101059.19;;;3.41;78.60
61568;BME280;47462;59.172;17.196;2023-01-28T11:41:50;101073.88;;;3.46;78.46
61568;BME280;47462;59.172;17.196;2023-01-28T11:44:23;101055.72;;;3.31;78.97
61568;BME280;47462;59.172;17.196;2023-01-28T11:49:26;101048.84;;;3.34;79.29
61568;BME280;47462;59.172;17.196;2023-01-28T11:52:11;101048.00;;;3.35;78.61
61568;BME280;47462;59.172;17.196;2023-01-28T11:57:56;101030.81;;;3.37;78.87
61568;BME280;47462;59.172;17.196;2023-01-28T12:13:57;101018.84;;;3.55;78.62
61568;BME280;47462;59.172;17.196;2023-01-28T12:16:41;101005.03;;;3.45;78.92
61568;BME280;47462;59.172;17.196;2023-01-28T12:23:13;101010.22;;;3.47;78.65
61568;BME280;47462;59.172;17.196;2023-01-28T12:32:54;101006.81;;;3.52;78.80
61568;BME280;47462;59.172;17.196;2023-01-28T12:35:30;101001.66;;;3.54;78.92
61568;BME280;47462;59.172;17.196;2023-01-28T12:40:58;100993.06;;;3.56;78.61
61568;BME280;47462;59.172;17.196;2023-01-28T12:46:42;100997.38;;;3.61;78.55
61568;BME280;47462;59.172;17.196;2023-01-28T12:52:01;100987.88;;;3.56;79.09
61568;BME280;47462;59.172;17.196;2023-01-28T12:54:34;100943.88;;;3.26;79.07
61568;BME280;47462;59.172;17.196;2023-01-28T12:57:02;100997.38;;;3.62;79.15
61568;BME280;47462;59.172;17.196;2023-01-28T12:59:33;100958.63;;;3.50;79.01
61568;BME280;47462;59.172;17.196;2023-01-28T13:07:49;100974.97;;;3.52;78.59
61568;BME280;47462;59.172;17.196;2023-01-28T13:10:24;100993.06;;;3.60;79.08
61568;BME280;47462;59.172;17.196;2023-01-28T13:12:52;100930.13;;;3.27;79.22
61568;BME280;47462;59.172;17.196;2023-01-28T13:15:22;100964.59;;;3.43;78.94
61568;BME280;47462;59.172;17.196;2023-01-28T13:17:57;100985.25;;;3.47;79.22
61568;BME280;47462;59.172;17.196;2023-01-28T13:20:46;100993.00;;;3.49;79.45
61568;BME280;47462;59.172;17.196;2023-01-28T13:23:36;100949.03;;;3.24;79.25
61568;BME280;47462;59.172;17.196;2023-01-28T13:28:43;100986.94;;;3.37;79.74
61568;BME280;47462;59.172;17.196;2023-01-28T13:31:10;100978.22;;;3.20;79.71
61568;BME280;47462;59.172;17.196;2023-01-28T13:33:44;100979.97;;;3.24;80.20
61568;BME280;47462;59.172;17.196;2023-01-28T13:38:47;101003.25;;;3.33;79.93
61568;BME280;47462;59.172;17.196;2023-01-28T13:41:13;100913.47;;;2.72;80.17
61568;BME280;47462;59.172;17.196;2023-01-28T13:43:40;101012.69;;;3.28;80.45
61568;BME280;47462;59.172;17.196;2023-01-28T13:46:11;101016.13;;;3.30;80.09
61568;BME280;47462;59.172;17.196;2023-01-28T13:48:51;100963.53;;;3.02;80.44
61568;BME280;47462;59.172;17.196;2023-01-28T13:54:01;101014.38;;;3.28;80.07
61568;BME280;47462;59.172;17.196;2023-01-28T13:56:40;100994.56;;;3.14;80.00
61568;BME280;47462;59.172;17.196;2023-01-28T14:10:07;101007.47;;;3.17;80.44
61568;BME280;47462;59.172;17.196;2023-01-28T14:13:11;101004.84;;;3.11;80.59
61568;BME280;47462;59.172;17.196;2023-01-28T14:15:50;100987.59;;;3.04;80.74
61568;BME280;47462;59.172;17.196;2023-01-28T14:18:28;101003.94;;;3.08;80.33
61568;BME280;47462;59.172;17.196;2023-01-28T14:21:00;100950.38;;;2.65;80.85
61568;BME280;47462;59.172;17.196;2023-01-28T14:23:26;100929.63;;;2.51;80.97
61568;BME280;47462;59.172;17.196;2023-01-28T14:26:07;101019.31;;;2.92;80.63
61568;BME280;47462;59.172;17.196;2023-01-28T14:31:33;101017.50;;;2.79;80.82
61568;BME280;47462;59.172;17.196;2023-01-28T14:36:36;100998.56;;;2.77;81.32
61568;BME280;47462;59.172;17.196;2023-01-28T14:39:02;101018.31;;;2.76;81.15
61568;BME280;47462;59.172;17.196;2023-01-28T14:41:28;101037.16;;;2.69;81.29
61568;BME280;47462;59.172;17.196;2023-01-28T14:43:54;100940.41;;;2.05;81.20
61568;BME280;47462;59.172;17.196;2023-01-28T14:46:36;101032.72;;;2.54;81.80
61568;BME280;47462;59.172;17.196;2023-01-28T14:49:24;100853.16;;;1.47;81.24
61568;BME280;47462;59.172;17.196;2023-01-28T14:58:04;101041.16;;;2.38;81.90
61568;BME280;47462;59.172;17.196;2023-01-28T15:00:32;101005.75;;;2.20;81.54
61568;BME280;47462;59.172;17.196;2023-01-28T15:02:58;100984.97;;;2.00;81.55
61568;BME280;47462;59.172;17.196;2023-01-28T15:05:26;100910.56;;;1.43;81.77
61568;BME280;47462;59.172;17.196;2023-01-28T15:07:52;100963.28;;;1.82;82.09
61568;BME280;47462;59.172;17.196;2023-01-28T15:10:25;101041.00;;;2.22;82.08
61568;BME280;47462;59.172;17.196;2023-01-28T15:12:53;101044.41;;;2.21;82.00